createdAt,value
2022-10-19T00:00:01.760Z,102914.81
2022-10-19T00:02:29.416Z,102914.94
2022-10-19T00:04:57.117Z,102910.91
2022-10-19T00:07:24.746Z,102920.66
2022-10-19T00:09:52.728Z,102922.75
2022-10-19T00:12:20.373Z,102922.84
2022-10-19T00:14:49.325Z,102914.22
2022-10-19T00:17:17.425Z,102915.13
2022-10-19T00:19:45.039Z,102916.72
2022-10-19T00:22:14.062Z,102909.69
2022-10-19T00:24:41.976Z,102902.44
2022-10-19T00:27:09.604Z,102900.25
2022-10-19T00:29:39.747Z,102906.41
2022-10-19T00:32:08.702Z,102906.53
2022-10-19T00:34:36.317Z,102905.81
2022-10-19T00:37:04.101Z,102908.78
2022-10-19T00:39:31.725Z,102911.63
2022-10-19T00:41:59.394Z,102911.06
2022-10-19T00:44:59.614Z,102900.16
2022-10-19T00:47:32.762Z,102908.75
2022-10-19T00:50:01.065Z,102914.81
2022-10-19T00:52:29.090Z,102912.63
2022-10-19T00:54:58.768Z,102907.56
2022-10-19T00:57:30.574Z,102911.44
2022-10-19T00:59:59.668Z,102912.72
2022-10-19T01:02:28.685Z,102911.53
2022-10-19T01:04:56.777Z,102910.38
2022-10-19T01:07:26.243Z,102904.94
2022-10-19T01:09:54.362Z,102903.22
2022-10-19T01:12:36.323Z,102899.38
2022-10-19T01:15:20.345Z,102896.00
2022-10-19T01:17:57.391Z,102889.34
2022-10-19T01:20:43.094Z,102894.50
2022-10-19T01:23:29.733Z,102892.88
2022-10-19T01:26:11.325Z,102887.50
2022-10-19T01:28:48.666Z,102883.75
2022-10-19T01:31:25.010Z,102879.78
2022-10-19T01:33:59.980Z,102883.66
2022-10-19T01:36:29.902Z,102882.06
2022-10-19T01:39:04.041Z,102881.47
2022-10-19T01:41:39.908Z,102882.72
2022-10-19T01:44:14.938Z,102874.22
2022-10-19T01:46:48.021Z,102875.47
2022-10-19T01:49:23.705Z,102870.03
2022-10-19T01:51:56.454Z,102867.47
2022-10-19T01:54:27.563Z,102870.75
2022-10-19T01:56:59.297Z,102872.84
2022-10-19T01:59:28.187Z,102869.03
2022-10-19T02:01:58.764Z,102874.31
2022-10-19T02:04:27.019Z,102874.53
2022-10-19T02:06:56.103Z,102877.59
2022-10-19T02:09:24.048Z,102880.66
2022-10-19T02:11:57.557Z,102876.44
2022-10-19T02:14:30.074Z,102878.72
2022-10-19T02:17:04.186Z,102881.41
2022-10-19T02:19:31.904Z,102871.13
2022-10-19T02:22:02.854Z,102873.16
2022-10-19T02:24:30.717Z,102868.31
2022-10-19T02:27:00.513Z,102868.38
2022-10-19T02:29:28.823Z,102872.66
2022-10-19T02:31:56.286Z,102874.31
2022-10-19T02:34:25.376Z,102870.50
2022-10-19T02:36:53.140Z,102869.75
2022-10-19T02:39:21.430Z,102865.25
2022-10-19T02:41:51.343Z,102865.66
2022-10-19T02:44:22.677Z,102862.44
2022-10-19T02:46:56.056Z,102852.91
2022-10-19T02:49:26.456Z,102854.94
2022-10-19T02:52:00.142Z,102853.56
2022-10-19T02:54:28.936Z,102855.19
2022-10-19T02:56:56.845Z,102852.13
2022-10-19T02:59:24.734Z,102849.34
2022-10-19T03:01:52.408Z,102849.34
2022-10-19T03:04:20.059Z,102856.00
2022-10-19T03:06:49.021Z,102852.38
2022-10-19T03:09:16.705Z,102845.69
2022-10-19T03:11:44.285Z,102851.78
2022-10-19T03:14:12.156Z,102840.50
2022-10-19T03:16:39.721Z,102843.13
2022-10-19T03:19:07.576Z,102837.72
2022-10-19T03:21:35.640Z,102837.09
2022-10-19T03:24:04.729Z,102842.19
2022-10-19T03:26:32.369Z,102828.84
2022-10-19T03:29:01.389Z,102831.91
2022-10-19T03:31:29.088Z,102835.53
2022-10-19T03:33:56.685Z,102828.69
2022-10-19T03:36:25.744Z,102830.72
2022-10-19T03:38:54.027Z,102835.75
2022-10-19T03:41:23.453Z,102838.59
2022-10-19T03:43:51.312Z,102825.44
2022-10-19T03:46:19.910Z,102835.16
2022-10-19T03:48:47.945Z,102833.16
2022-10-19T03:51:18.513Z,102836.84
2022-10-19T03:53:46.786Z,102832.78
2022-10-19T03:56:15.268Z,102822.72
2022-10-19T03:58:46.157Z,102822.31
2022-10-19T04:01:15.882Z,102832.81
2022-10-19T04:03:43.932Z,102833.03
2022-10-19T04:06:18.192Z,102828.78
2022-10-19T04:08:50.027Z,102836.47
2022-10-19T04:11:19.129Z,102829.63
2022-10-19T04:13:51.018Z,102831.84
2022-10-19T04:16:20.609Z,102824.81
2022-10-19T04:18:48.781Z,102822.16
2022-10-19T04:21:25.537Z,102829.25
2022-10-19T04:24:00.409Z,102828.44
2022-10-19T04:26:28.323Z,102832.09
2022-10-19T04:28:59.515Z,102832.91
2022-10-19T04:31:28.168Z,102836.16
2022-10-19T04:33:56.268Z,102836.78
2022-10-19T04:36:24.506Z,102835.16
2022-10-19T04:38:52.498Z,102831.72
2022-10-19T04:41:22.046Z,102823.25
2022-10-19T04:43:51.175Z,102823.44
2022-10-19T04:46:20.993Z,102825.25
2022-10-19T04:48:49.331Z,102829.28
2022-10-19T04:51:19.070Z,102838.59
2022-10-19T04:53:48.177Z,102834.56
2022-10-19T04:56:17.972Z,102826.88
2022-10-19T04:58:46.088Z,102837.41
2022-10-19T05:01:15.566Z,102843.66
2022-10-19T05:03:47.495Z,102837.59
2022-10-19T05:06:17.713Z,102834.13
2022-10-19T05:08:45.297Z,102832.53
2022-10-19T05:11:18.033Z,102829.09
2022-10-19T05:13:47.712Z,102827.91
2022-10-19T05:16:17.813Z,102825.28
2022-10-19T05:18:49.838Z,102826.50
2022-10-19T05:21:18.201Z,102825.09
2022-10-19T05:23:45.996Z,102820.66
2022-10-19T05:26:15.397Z,102824.88
2022-10-19T05:28:44.623Z,102819.22
2022-10-19T05:31:14.666Z,102815.97
2022-10-19T05:33:43.585Z,102812.75
2022-10-19T05:36:14.610Z,102811.16
2022-10-19T05:38:42.649Z,102808.53
2022-10-19T05:41:10.569Z,102809.53
2022-10-19T05:43:39.313Z,102812.78
2022-10-19T05:46:09.391Z,102820.22
2022-10-19T05:48:39.327Z,102819.03
2022-10-19T05:51:08.585Z,102821.66
2022-10-19T05:56:16.663Z,102813.19
2022-10-19T05:58:44.407Z,102813.97
2022-10-19T06:01:12.184Z,102809.13
2022-10-19T06:03:40.284Z,102822.22
2022-10-19T06:06:09.794Z,102815.59
2022-10-19T06:08:39.549Z,102814.56
2022-10-19T06:11:09.026Z,102816.19
2022-10-19T06:13:37.027Z,102811.13
2022-10-19T06:16:05.315Z,102808.09
2022-10-19T06:18:35.428Z,102805.47
2022-10-19T06:21:08.992Z,102804.47
2022-10-19T06:23:39.058Z,102810.53
2022-10-19T06:26:08.669Z,102819.22
2022-10-19T06:28:38.106Z,102816.00
2022-10-19T06:31:08.510Z,102832.56
2022-10-19T06:33:37.356Z,102834.16
2022-10-19T06:36:08.476Z,102826.69
2022-10-19T06:38:36.271Z,102828.91
2022-10-19T06:41:05.759Z,102828.91
2022-10-19T06:43:34.043Z,102831.34
2022-10-19T06:46:05.357Z,102824.47
2022-10-19T06:48:33.082Z,102826.91
2022-10-19T06:51:05.905Z,102827.31
2022-10-19T06:53:34.374Z,102824.47
2022-10-19T06:56:04.143Z,102812.97
2022-10-19T06:58:36.100Z,102816.41
2022-10-19T07:01:05.115Z,102808.31
2022-10-19T07:03:32.782Z,102805.47
2022-10-19T07:06:04.813Z,102804.28
2022-10-19T07:08:33.501Z,102806.50
2022-10-19T07:11:02.825Z,102804.09
2022-10-19T07:13:32.311Z,102798.00
2022-10-19T07:16:05.513Z,102804.88
2022-10-19T07:18:34.991Z,102806.91
2022-10-19T07:21:04.504Z,102800.84
2022-10-19T07:23:33.662Z,102805.06
2022-10-19T07:26:05.747Z,102810.91
2022-10-19T07:28:33.950Z,102815.53
2022-10-19T07:31:06.204Z,102819.75
2022-10-19T07:33:34.059Z,102812.19
2022-10-19T07:36:02.492Z,102810.47
2022-10-19T07:38:31.573Z,102807.31
2022-10-19T07:41:04.385Z,102813.81
2022-10-19T07:43:32.137Z,102826.06
2022-10-19T07:46:01.107Z,102819.00
2022-10-19T07:48:31.542Z,102822.06
2022-10-19T07:50:59.600Z,102821.66
2022-10-19T07:53:27.196Z,102819.41
2022-10-19T07:55:54.786Z,102821.03
2022-10-19T07:58:22.523Z,102820.78
2022-10-19T08:00:50.167Z,102821.56
2022-10-19T08:06:08.361Z,102820.78
2022-10-19T08:08:37.134Z,102815.66
2022-10-19T08:11:08.725Z,102819.00
2022-10-19T08:13:36.821Z,102822.13
2022-10-19T08:16:04.543Z,102820.16
2022-10-19T08:21:08.623Z,102812.66
2022-10-19T08:23:36.239Z,102821.22
2022-10-19T08:26:03.914Z,102816.09
2022-10-19T08:28:31.518Z,102818.84
2022-10-19T08:30:59.143Z,102817.66
2022-10-19T08:33:27.542Z,102820.97
2022-10-19T08:35:55.185Z,102815.56
2022-10-19T08:38:24.145Z,102804.31
2022-10-19T08:40:51.936Z,102803.81
2022-10-19T08:43:25.257Z,102802.25
2022-10-19T08:46:01.816Z,102802.22
2022-10-19T08:48:32.912Z,102794.47
2022-10-19T08:51:02.717Z,102795.72
2022-10-19T08:53:41.206Z,102786.59
2022-10-19T08:56:38.907Z,102791.00
2022-10-19T08:59:14.486Z,102783.94
2022-10-19T09:01:48.209Z,102775.78
2022-10-19T09:04:25.187Z,102778.28
2022-10-19T09:07:08.181Z,102774.06
2022-10-19T09:09:43.729Z,102772.50
2022-10-19T09:12:18.756Z,102767.50
2022-10-19T09:14:57.226Z,102762.47
2022-10-19T09:17:25.259Z,102763.81
2022-10-19T09:30:21.071Z,102775.63
2022-10-19T09:32:51.033Z,102770.75
2022-10-19T09:35:27.491Z,102770.16
2022-10-19T09:37:56.715Z,102771.69
2022-10-19T09:40:26.895Z,102764.09
2022-10-19T09:42:58.499Z,102758.09
2022-10-19T09:45:35.267Z,102745.34
2022-10-19T09:48:12.777Z,102745.91
2022-10-19T09:50:44.215Z,102740.84
2022-10-19T09:53:20.432Z,102734.72
2022-10-19T09:55:52.260Z,102730.44
2022-10-19T09:58:21.700Z,102734.75
2022-10-19T10:00:51.528Z,102736.19
2022-10-19T10:03:28.940Z,102735.75
2022-10-19T10:05:58.714Z,102729.97
2022-10-19T10:08:28.931Z,102732.06
2022-10-19T10:11:06.985Z,102727.09
2022-10-19T10:13:40.221Z,102721.72
2022-10-19T10:16:10.761Z,102727.22
2022-10-19T10:18:50.982Z,102720.69
2022-10-19T10:21:25.674Z,102720.31
2022-10-19T10:24:03.607Z,102724.63
2022-10-19T10:26:31.356Z,102723.16
2022-10-19T10:29:01.555Z,102724.06
2022-10-19T10:31:31.050Z,102723.84
2022-10-19T10:34:12.208Z,102727.47
2022-10-19T10:36:52.877Z,102721.88
2022-10-19T10:39:20.535Z,102718.81
2022-10-19T10:41:50.041Z,102720.50
2022-10-19T10:44:23.220Z,102718.53
2022-10-19T10:46:56.470Z,102710.97
2022-10-19T10:49:27.670Z,102710.94
2022-10-19T10:51:58.000Z,102717.09
2022-10-19T10:54:27.728Z,102707.03
2022-10-19T10:57:13.928Z,102696.63
2022-10-19T10:59:50.395Z,102691.09
2022-10-19T11:02:36.739Z,102684.31
2022-10-19T11:05:08.499Z,102672.19
2022-10-19T11:07:37.824Z,102674.03
2022-10-19T11:10:14.388Z,102669.66
2022-10-19T11:12:48.688Z,102659.09
2022-10-19T11:15:23.794Z,102658.91
2022-10-19T11:18:02.647Z,102659.72
2022-10-19T11:20:33.383Z,102651.78
2022-10-19T11:23:09.594Z,102650.75
2022-10-19T11:25:49.334Z,102646.41
2022-10-19T11:28:30.832Z,102642.16
2022-10-19T11:31:07.525Z,102643.59
2022-10-19T11:33:48.842Z,102636.19
2022-10-19T11:36:31.302Z,102630.44
2022-10-19T11:39:13.450Z,102618.75
2022-10-19T11:41:50.334Z,102621.72
2022-10-19T11:44:30.384Z,102622.22
2022-10-19T11:47:17.739Z,102612.47
2022-10-19T11:49:56.202Z,102608.28
2022-10-19T11:52:32.649Z,102604.44
2022-10-19T11:55:14.919Z,102598.75
2022-10-19T11:57:48.018Z,102582.66
2022-10-19T12:00:39.337Z,102577.38
2022-10-19T12:03:34.620Z,102582.78
2022-10-19T12:06:11.806Z,102569.13
2022-10-19T12:08:55.395Z,102563.06
2022-10-19T12:11:36.533Z,102566.13
2022-10-19T12:14:07.078Z,102566.41
2022-10-19T12:16:40.928Z,102562.63
2022-10-19T12:19:16.985Z,102548.81
2022-10-19T12:21:46.726Z,102555.06
2022-10-19T12:24:18.618Z,102542.75
2022-10-19T12:26:48.045Z,102533.22
2022-10-19T12:29:18.786Z,102533.94
2022-10-19T12:31:48.081Z,102541.28
2022-10-19T12:34:28.669Z,102524.69
2022-10-19T12:36:59.917Z,102525.19
2022-10-19T12:39:35.937Z,102521.84
2022-10-19T12:42:13.658Z,102516.53
2022-10-19T12:45:14.497Z,102500.34
2022-10-19T12:47:42.003Z,102504.38
2022-10-19T12:50:10.902Z,102493.47
2022-10-19T12:52:44.360Z,102483.09
2022-10-19T12:55:34.597Z,102477.75
2022-10-19T12:58:05.854Z,102478.84
2022-10-19T13:00:35.318Z,102471.94
2022-10-19T13:03:07.066Z,102465.59
2022-10-19T13:05:36.981Z,102453.81
2022-10-19T13:08:10.601Z,102447.06
2022-10-19T13:10:41.440Z,102450.78
2022-10-19T13:13:52.950Z,102440.81
2022-10-19T13:16:54.254Z,102441.50
2022-10-19T13:19:23.474Z,102436.41
2022-10-19T13:21:55.239Z,102434.75
2022-10-19T13:24:30.771Z,102425.94
2022-10-19T13:27:28.009Z,102422.94
2022-10-19T13:29:56.307Z,102420.97
2022-10-19T13:32:44.236Z,102423.00
2022-10-19T13:35:24.757Z,102405.78
2022-10-19T13:38:12.846Z,102405.13
2022-10-19T13:40:57.123Z,102407.53
2022-10-19T13:43:27.093Z,102405.81
2022-10-19T13:45:56.278Z,102405.34
2022-10-19T13:48:32.721Z,102401.91
2022-10-19T13:51:11.920Z,102403.91
2022-10-19T13:53:49.877Z,102402.91
2022-10-19T13:56:39.979Z,102400.19
2022-10-19T13:59:28.694Z,102395.38
2022-10-19T14:02:31.713Z,102401.81
2022-10-19T14:05:19.554Z,102401.03
2022-10-19T14:08:02.098Z,102402.41
2022-10-19T14:10:33.022Z,102400.97
2022-10-19T14:13:02.972Z,102406.53
2022-10-19T14:15:33.338Z,102401.81
2022-10-19T14:18:03.843Z,102401.63
2022-10-19T14:20:35.377Z,102397.44
2022-10-19T14:23:21.324Z,102405.34
2022-10-19T14:25:55.819Z,102400.94
2022-10-19T14:28:24.484Z,102398.31
2022-10-19T14:31:00.377Z,102404.56
2022-10-19T14:33:29.364Z,102403.63
2022-10-19T14:35:57.687Z,102397.69
2022-10-19T14:38:32.669Z,102387.69
2022-10-19T14:41:02.267Z,102384.34
2022-10-19T14:43:31.163Z,102391.34
2022-10-19T14:46:13.692Z,102390.22
2022-10-19T14:48:45.276Z,102392.06
2022-10-19T14:51:23.534Z,102379.03
2022-10-19T14:53:55.135Z,102371.06
2022-10-19T14:56:28.555Z,102372.06
2022-10-19T14:59:00.221Z,102369.03
2022-10-19T15:01:28.154Z,102359.53
2022-10-19T15:03:56.476Z,102353.41
2022-10-19T15:06:27.942Z,102342.22
2022-10-19T15:08:58.463Z,102342.63
2022-10-19T15:11:31.316Z,102347.34
2022-10-19T15:14:04.792Z,102336.88
2022-10-19T15:16:52.893Z,102340.41
2022-10-19T15:19:27.259Z,102334.28
2022-10-19T15:22:13.892Z,102326.88
2022-10-19T15:24:55.534Z,102318.81
2022-10-19T15:27:32.032Z,102322.03
2022-10-19T15:30:01.614Z,102319.53
2022-10-19T15:32:33.485Z,102313.44
2022-10-19T15:35:01.484Z,102305.31
2022-10-19T15:37:29.244Z,102292.41
2022-10-19T15:39:57.301Z,102302.66
2022-10-19T15:42:37.293Z,102292.22
2022-10-19T15:45:26.201Z,102301.41
2022-10-19T15:48:18.425Z,102310.59
2022-10-19T15:50:48.469Z,102300.25
2022-10-19T15:53:16.485Z,102298.03
2022-10-19T15:55:44.147Z,102286.91
2022-10-19T15:58:14.409Z,102285.41
2022-10-19T16:00:42.718Z,102284.25
2022-10-19T16:03:10.323Z,102276.56
2022-10-19T16:05:38.133Z,102274.50
2022-10-19T16:08:10.106Z,102267.50
2022-10-19T16:10:40.002Z,102264.75
2022-10-19T16:13:07.440Z,102253.19
2022-10-19T16:15:36.377Z,102251.25
2022-10-19T16:18:04.046Z,102254.31
2022-10-19T16:20:31.683Z,102255.78
2022-10-19T16:22:59.349Z,102254.41
2022-10-19T16:25:26.816Z,102249.06
2022-10-19T16:27:54.593Z,102242.31
2022-10-19T16:30:22.277Z,102242.75
2022-10-19T16:32:51.253Z,102248.16
2022-10-19T16:35:18.866Z,102249.56
2022-10-19T16:37:46.359Z,102245.22
2022-10-19T16:40:14.013Z,102256.38
2022-10-19T16:42:41.491Z,102255.34
2022-10-19T16:45:10.488Z,102256.63
2022-10-19T16:47:38.169Z,102245.91
2022-10-19T16:50:07.389Z,102249.69
2022-10-19T16:52:35.386Z,102245.91
2022-10-19T16:55:03.274Z,102239.84
2022-10-19T16:57:30.973Z,102241.81
2022-10-19T16:59:58.442Z,102226.06
2022-10-19T17:02:26.168Z,102218.81
2022-10-19T17:04:53.896Z,102223.75
2022-10-19T17:07:22.833Z,102213.16
2022-10-19T17:09:54.681Z,102218.25
2022-10-19T17:12:22.691Z,102222.25
2022-10-19T17:14:51.242Z,102222.38
2022-10-19T17:17:18.922Z,102217.63
2022-10-19T17:19:46.764Z,102210.56
2022-10-19T17:22:14.385Z,102207.66
2022-10-19T17:24:46.188Z,102204.25
2022-10-19T17:27:13.775Z,102209.84
2022-10-19T17:29:41.456Z,102211.06
2022-10-19T17:32:09.120Z,102200.28
2022-10-19T17:34:36.748Z,102195.09
2022-10-19T17:37:04.421Z,102197.03
2022-10-19T17:39:32.649Z,102199.81
2022-10-19T17:42:03.254Z,102204.44
2022-10-19T17:44:31.754Z,102193.50
2022-10-19T17:47:00.708Z,102191.16
2022-10-19T17:49:29.689Z,102196.63
2022-10-19T17:51:57.349Z,102187.66
2022-10-19T17:54:25.050Z,102192.00
2022-10-19T17:56:52.701Z,102182.81
2022-10-19T17:59:30.364Z,102183.13
2022-10-19T18:02:02.694Z,102184.84
2022-10-19T18:04:30.330Z,102182.78
2022-10-19T18:06:58.046Z,102187.06
2022-10-19T18:09:25.676Z,102193.63
2022-10-19T18:11:53.293Z,102196.94
2022-10-19T18:14:23.614Z,102195.66
2022-10-19T18:16:52.051Z,102206.34
2022-10-19T18:19:19.826Z,102207.19
2022-10-19T18:21:49.122Z,102205.09
2022-10-19T18:24:20.112Z,102201.16
2022-10-19T18:26:48.871Z,102199.28
2022-10-19T18:29:19.593Z,102208.38
2022-10-19T18:31:51.645Z,102197.78
2022-10-19T18:34:22.627Z,102194.63
2022-10-19T18:36:50.485Z,102185.53
2022-10-19T18:39:18.257Z,102187.69
2022-10-19T18:41:46.117Z,102180.84
2022-10-19T18:44:14.224Z,102180.59
2022-10-19T18:46:42.145Z,102171.34
2022-10-19T18:49:12.697Z,102164.19
2022-10-19T18:51:40.497Z,102150.66
2022-10-19T18:54:08.162Z,102149.88
2022-10-19T18:56:36.488Z,102156.81
2022-10-19T18:59:04.851Z,102156.56
2022-10-19T19:01:32.541Z,102148.59
2022-10-19T19:04:07.527Z,102152.31
2022-10-19T19:06:38.188Z,102161.63
2022-10-19T19:09:08.870Z,102154.47
2022-10-19T19:11:38.438Z,102159.25
2022-10-19T19:14:07.785Z,102149.97
2022-10-19T19:16:37.196Z,102142.78
2022-10-19T19:19:05.671Z,102126.31
2022-10-19T19:21:34.992Z,102133.78
2022-10-19T19:24:06.478Z,102131.63
2022-10-19T19:26:36.172Z,102139.09
2022-10-19T19:29:04.432Z,102128.50
2022-10-19T19:31:32.500Z,102116.25
2022-10-19T19:34:01.115Z,102097.13
2022-10-19T19:36:29.805Z,102097.13
2022-10-19T19:38:59.028Z,102083.06
2022-10-19T19:41:28.823Z,102080.66
2022-10-19T19:43:57.515Z,102074.31
2022-10-19T19:46:25.162Z,102069.78
2022-10-19T19:48:59.765Z,102061.56
2022-10-19T19:51:28.104Z,102062.59
2022-10-19T19:53:55.792Z,102054.66
2022-10-19T19:56:24.382Z,102047.50
2022-10-19T19:58:57.421Z,102042.94
2022-10-19T20:01:25.259Z,102041.38
2022-10-19T20:03:53.291Z,102038.97
2022-10-19T20:06:23.663Z,102042.41
2022-10-19T20:08:53.679Z,102044.53
2022-10-19T20:11:21.947Z,102038.41
2022-10-19T20:13:49.627Z,102030.97
2022-10-19T20:16:28.166Z,102028.81
2022-10-19T20:19:02.955Z,102018.75
2022-10-19T20:21:31.786Z,102014.75
2022-10-19T20:23:59.455Z,102017.13
2022-10-19T20:26:28.227Z,102016.88
2022-10-19T20:28:55.825Z,102025.88
2022-10-19T20:31:25.657Z,102029.03
2022-10-19T20:33:53.421Z,102022.13
2022-10-19T20:36:23.223Z,102013.09
2022-10-19T20:38:53.637Z,102011.75
2022-10-19T20:41:23.862Z,102002.47
2022-10-19T20:43:51.732Z,102000.88
2022-10-19T20:46:22.268Z,101996.63
2022-10-19T20:48:52.178Z,101994.50
2022-10-19T20:51:23.048Z,101989.69
2022-10-19T20:53:52.649Z,101982.53
2022-10-19T20:56:23.149Z,101982.78
2022-10-19T20:58:55.988Z,101978.03
2022-10-19T21:01:24.223Z,101980.66
2022-10-19T21:03:54.797Z,101975.34
2022-10-19T21:06:24.442Z,101984.34
2022-10-19T21:08:52.771Z,101973.47
2022-10-19T21:11:23.149Z,101976.38
2022-10-19T21:13:54.446Z,101976.91
2022-10-19T21:16:23.399Z,101970.81
2022-10-19T21:18:52.791Z,101968.13
2022-10-19T21:21:22.693Z,101971.56
2022-10-19T21:23:54.457Z,101974.19
2022-10-19T21:26:22.347Z,101977.34
2022-10-19T21:28:53.047Z,101969.94
2022-10-19T21:31:21.534Z,101972.56
2022-10-19T21:33:49.466Z,101965.13
2022-10-19T21:36:19.612Z,101965.94
2022-10-19T21:38:47.662Z,101965.66
2022-10-19T21:41:16.161Z,101964.09
2022-10-19T21:43:43.992Z,101959.56
2022-10-19T21:46:14.043Z,101955.28
2022-10-19T21:48:42.315Z,101961.13
2022-10-19T21:51:21.826Z,101952.09
2022-10-19T21:53:49.615Z,101949.69
2022-10-19T21:56:17.737Z,101949.16
2022-10-19T21:58:46.465Z,101956.00
2022-10-19T22:01:14.505Z,101951.78
2022-10-19T22:03:42.071Z,101944.31
2022-10-19T22:06:09.727Z,101934.81
2022-10-19T22:08:39.077Z,101927.88
2022-10-19T22:11:07.624Z,101927.00
2022-10-19T22:13:35.581Z,101923.81
2022-10-19T22:16:07.346Z,101916.16
2022-10-19T22:18:34.996Z,101916.16
2022-10-19T22:21:04.655Z,101921.94
2022-10-19T22:23:32.447Z,101927.78
2022-10-19T22:26:01.685Z,101925.13
2022-10-19T22:28:29.706Z,101913.19
2022-10-19T22:30:57.727Z,101907.59
2022-10-19T22:33:26.413Z,101900.69
2022-10-19T22:35:55.137Z,101902.50
2022-10-19T22:38:23.418Z,101892.19
2022-10-19T22:41:46.219Z,101889.53
2022-10-19T22:44:15.218Z,101882.63
2022-10-19T22:46:42.928Z,101884.72
2022-10-19T22:49:10.716Z,101888.97
2022-10-19T22:51:38.387Z,101875.75
2022-10-19T22:54:06.828Z,101871.50
2022-10-19T22:56:34.540Z,101864.06
2022-10-19T22:59:03.476Z,101858.22
2022-10-19T23:01:32.538Z,101849.22
2022-10-19T23:04:00.406Z,101844.75
2022-10-19T23:06:28.200Z,101853.22
2022-10-19T23:08:55.866Z,101848.97
2022-10-19T23:11:25.713Z,101843.13
2022-10-19T23:13:53.390Z,101841.78
2022-10-19T23:16:21.076Z,101835.97
2022-10-19T23:18:50.147Z,101848.66
2022-10-19T23:21:17.813Z,101849.16
2022-10-19T23:23:45.480Z,101835.88
2022-10-19T23:26:15.090Z,101833.78
2022-10-19T23:28:44.761Z,101833.22
2022-10-19T23:31:14.801Z,101828.44
2022-10-19T23:33:42.908Z,101822.06
2022-10-19T23:36:14.250Z,101818.09
2022-10-19T23:38:42.013Z,101806.69
2022-10-19T23:41:09.724Z,101798.47
2022-10-19T23:43:38.363Z,101798.72
2022-10-19T23:46:06.223Z,101796.56
2022-10-19T23:48:34.780Z,101802.66
2022-10-19T23:51:04.704Z,101806.34
2022-10-19T23:53:38.419Z,101794.44
2022-10-19T23:56:10.491Z,101782.53
2022-10-19T23:58:38.122Z,101784.63
